Terminal Aerodrome Forecast
Issued by NWS

Home | Current Version | Previous Version | Graphics & Text | Print | Product List | Glossary On
Versions: 1 2 3 4 5 6 7 8 9 10 11 12 13 14 15 16
000
FTUS43 KGRB 241137
TAFMTW
TAF
KMTW 241137Z 2412/2512 18010KT 5SM SHRA OVC023
      TEMPO 2412/2415 2SM -SHRA BKN009
     FM241500 20013G20KT P6SM OVC023
     FM241900 21013G19KT P6SM BKN040
     FM242200 26006KT P6SM SCT040 BKN070 PROB30 2423/2505 -SHRA
      BKN025
     FM250500 26004KT P6SM BKN120=

USA.gov is the U.S. government's official web portal to all federal, state and local government web resources and services.